High temp

Not for real navigation. The accuracy of this data is not assured See disclaimer for more information



ICAO NAME COUNTRY WIND Kt GUST Kt VIS m TEMP/DEW C BARO METAR
KBBF Brazos 133 TX United States 8 0 16000 60/54 29.96 KBBF 172155Z AUTO 17008KT 10SM OVC031 60/54 A2996 RMK A01
KLGF 0 0 9999 39/39 29.91 KLGF 172158Z AUTO 00000KT 10SM CAVOK 39/39 A2991 RMK AO2 SLP124
SBCR Corumba Brazil 5 0 9999 36/15 29.62 SBCR 172100Z 08005KT CAVOK 36/15 Q1003
KFUL FULLERTON MUNICIPAL AIRPORT CA United States 5 0 9999 35/-7 29.89 KFUL 172153Z 07005KT 10SM CAVOK 35/M07 A2989 RMK AO2 SLP119 T03501072
SLET Santa Cruz / El Trompillo Bolivia 0 0 9999 34/16 29.68 SLET 172200Z 00000KT 9999 NSC 34/16 Q1005

Show more